sensor_id;sensor_type;location;lat;lon;timestamp;pressure;altitude;pressure_sealevel;temperature;humidity
63321;BME280;49449;48.800;9.534;2022-09-21T00:01:22;99367.13;;;8.20;41.93
63321;BME280;49449;48.800;9.534;2022-09-21T00:03:52;99363.28;;;8.22;42.04
63321;BME280;49449;48.800;9.534;2022-09-21T00:06:22;99373.19;;;8.20;42.15
63321;BME280;49449;48.800;9.534;2022-09-21T00:08:50;99369.53;;;8.21;42.20
63321;BME280;49449;48.800;9.534;2022-09-21T00:11:20;99370.19;;;8.23;42.17
63321;BME280;49449;48.800;9.534;2022-09-21T00:13:51;99364.50;;;8.26;42.25
63321;BME280;49449;48.800;9.534;2022-09-21T00:16:21;99373.63;;;8.24;42.16
63321;BME280;49449;48.800;9.534;2022-09-21T00:18:49;99375.69;;;8.28;41.86
63321;BME280;49449;48.800;9.534;2022-09-21T00:21:18;99368.50;;;8.15;42.21
63321;BME280;49449;48.800;9.534;2022-09-21T00:23:46;99370.44;;;8.07;42.44
63321;BME280;49449;48.800;9.534;2022-09-21T00:26:16;99374.34;;;8.11;42.23
63321;BME280;49449;48.800;9.534;2022-09-21T00:28:44;99372.09;;;8.08;42.24
63321;BME280;49449;48.800;9.534;2022-09-21T00:31:14;99367.00;;;8.06;42.10
63321;BME280;49449;48.800;9.534;2022-09-21T00:33:44;99362.72;;;7.98;42.11
63321;BME280;49449;48.800;9.534;2022-09-21T00:36:14;99364.72;;;7.96;42.37
63321;BME280;49449;48.800;9.534;2022-09-21T00:38:43;99363.88;;;7.96;42.19
63321;BME280;49449;48.800;9.534;2022-09-21T00:41:12;99359.22;;;7.91;42.12
63321;BME280;49449;48.800;9.534;2022-09-21T00:43:43;99355.31;;;7.87;42.32
63321;BME280;49449;48.800;9.534;2022-09-21T00:46:15;99361.19;;;7.89;42.14
63321;BME280;49449;48.800;9.534;2022-09-21T00:48:47;99363.63;;;7.91;42.05
63321;BME280;49449;48.800;9.534;2022-09-21T00:51:15;99365.97;;;8.01;42.04
63321;BME280;49449;48.800;9.534;2022-09-21T00:53:44;99357.47;;;8.05;41.70
63321;BME280;49449;48.800;9.534;2022-09-21T00:56:14;99356.06;;;8.03;41.91
63321;BME280;49449;48.800;9.534;2022-09-21T00:58:45;99367.56;;;8.02;41.66
63321;BME280;49449;48.800;9.534;2022-09-21T01:01:15;99364.13;;;8.01;41.75
63321;BME280;49449;48.800;9.534;2022-09-21T01:03:43;99357.88;;;8.02;41.71
63321;BME280;49449;48.800;9.534;2022-09-21T01:06:14;99361.25;;;7.96;41.96
63321;BME280;49449;48.800;9.534;2022-09-21T01:08:44;99355.50;;;7.86;41.94
63321;BME280;49449;48.800;9.534;2022-09-21T01:11:28;99361.84;;;7.91;41.90
63321;BME280;49449;48.800;9.534;2022-09-21T01:14:08;99360.81;;;7.92;41.94
63321;BME280;49449;48.800;9.534;2022-09-21T01:16:43;99364.91;;;7.95;42.11
63321;BME280;49449;48.800;9.534;2022-09-21T01:19:23;99362.91;;;7.97;41.93
63321;BME280;49449;48.800;9.534;2022-09-21T01:22:06;99367.13;;;7.98;41.97
63321;BME280;49449;48.800;9.534;2022-09-21T01:24:48;99355.19;;;7.95;41.91
63321;BME280;49449;48.800;9.534;2022-09-21T01:27:39;99362.91;;;7.97;42.07
63321;BME280;49449;48.800;9.534;2022-09-21T01:30:14;99362.09;;;7.96;41.74
63321;BME280;49449;48.800;9.534;2022-09-21T01:32:46;99367.53;;;7.95;41.80
63321;BME280;49449;48.800;9.534;2022-09-21T01:35:20;99365.09;;;7.93;41.52
63321;BME280;49449;48.800;9.534;2022-09-21T01:37:52;99362.66;;;7.92;41.65
63321;BME280;49449;48.800;9.534;2022-09-21T01:40:26;99366.09;;;7.92;41.62
63321;BME280;49449;48.800;9.534;2022-09-21T01:43:00;99369.75;;;7.91;41.88
63321;BME280;49449;48.800;9.534;2022-09-21T01:45:33;99372.16;;;7.93;41.81
63321;BME280;49449;48.800;9.534;2022-09-21T01:48:02;99376.59;;;7.92;42.00
63321;BME280;49449;48.800;9.534;2022-09-21T01:50:34;99372.16;;;7.93;42.17
63321;BME280;49449;48.800;9.534;2022-09-21T01:53:07;99373.97;;;7.92;42.22
63321;BME280;49449;48.800;9.534;2022-09-21T01:55:40;99379.06;;;7.94;41.95
63321;BME280;49449;48.800;9.534;2022-09-21T01:58:13;99380.63;;;7.88;42.05
63321;BME280;49449;48.800;9.534;2022-09-21T02:00:46;99377.19;;;7.88;42.05
63321;BME280;49449;48.800;9.534;2022-09-21T02:03:20;99373.72;;;7.87;41.92
63321;BME280;49449;48.800;9.534;2022-09-21T02:05:49;99371.50;;;7.84;42.08
63321;BME280;49449;48.800;9.534;2022-09-21T02:08:16;99369.06;;;7.83;41.98
63321;BME280;49449;48.800;9.534;2022-09-21T02:10:48;99383.38;;;7.80;41.91
63321;BME280;49449;48.800;9.534;2022-09-21T02:13:18;99378.13;;;7.80;41.69
63321;BME280;49449;48.800;9.534;2022-09-21T02:16:02;99377.69;;;7.76;41.65
63321;BME280;49449;48.800;9.534;2022-09-21T02:18:42;99370.88;;;7.60;41.77
63321;BME280;49449;48.800;9.534;2022-09-21T02:21:17;99378.94;;;7.59;43.53
63321;BME280;49449;48.800;9.534;2022-09-21T02:23:56;99376.13;;;7.60;41.88
63321;BME280;49449;48.800;9.534;2022-09-21T02:26:33;99367.75;;;7.57;42.01
63321;BME280;49449;48.800;9.534;2022-09-21T02:29:07;99371.97;;;7.51;42.00
63321;BME280;49449;48.800;9.534;2022-09-21T02:31:48;99368.81;;;7.41;42.08
63321;BME280;49449;48.800;9.534;2022-09-21T02:34:21;99372.75;;;7.30;42.28
63321;BME280;49449;48.800;9.534;2022-09-21T02:36:54;99372.75;;;7.30;42.69
63321;BME280;49449;48.800;9.534;2022-09-21T02:39:30;99368.38;;;7.37;42.17
63321;BME280;49449;48.800;9.534;2022-09-21T02:42:05;99366.00;;;7.43;42.25
63321;BME280;49449;48.800;9.534;2022-09-21T02:44:39;99378.16;;;7.44;42.20
63321;BME280;49449;48.800;9.534;2022-09-21T02:47:14;99376.53;;;7.43;42.13
63321;BME280;49449;48.800;9.534;2022-09-21T02:49:46;99378.28;;;7.35;42.16
63321;BME280;49449;48.800;9.534;2022-09-21T02:52:17;99372.94;;;7.29;42.28
63321;BME280;49449;48.800;9.534;2022-09-21T02:54:47;99373.94;;;7.28;42.79
63321;BME280;49449;48.800;9.534;2022-09-21T02:57:19;99369.22;;;7.23;42.75
63321;BME280;49449;48.800;9.534;2022-09-21T02:59:47;99374.75;;;7.28;42.83
63321;BME280;49449;48.800;9.534;2022-09-21T03:02:17;99375.81;;;7.34;42.67
63321;BME280;49449;48.800;9.534;2022-09-21T03:04:46;99370.00;;;7.38;42.67
63321;BME280;49449;48.800;9.534;2022-09-21T03:07:14;99374.44;;;7.38;42.41
63321;BME280;49449;48.800;9.534;2022-09-21T03:09:43;99369.63;;;7.41;42.39
63321;BME280;49449;48.800;9.534;2022-09-21T03:12:10;99366.63;;;7.45;42.63
63321;BME280;49449;48.800;9.534;2022-09-21T03:14:39;99357.56;;;7.47;42.47
63321;BME280;49449;48.800;9.534;2022-09-21T03:17:06;99366.69;;;7.51;42.50
63321;BME280;49449;48.800;9.534;2022-09-21T03:19:36;99374.59;;;7.51;42.51
63321;BME280;49449;48.800;9.534;2022-09-21T03:22:03;99373.38;;;7.54;42.23
63321;BME280;49449;48.800;9.534;2022-09-21T03:24:31;99369.16;;;7.53;42.25
63321;BME280;49449;48.800;9.534;2022-09-21T03:27:16;99376.59;;;7.49;42.39
63321;BME280;49449;48.800;9.534;2022-09-21T03:29:44;99376.59;;;7.49;42.33
63321;BME280;49449;48.800;9.534;2022-09-21T03:32:12;99381.47;;;7.52;42.36
63321;BME280;49449;48.800;9.534;2022-09-21T03:34:42;99383.91;;;7.54;41.79
63321;BME280;49449;48.800;9.534;2022-09-21T03:37:10;99391.78;;;7.54;41.97
63321;BME280;49449;48.800;9.534;2022-09-21T03:39:37;99387.03;;;7.43;41.81
63321;BME280;49449;48.800;9.534;2022-09-21T03:42:05;99385.41;;;7.41;41.83
63321;BME280;49449;48.800;9.534;2022-09-21T03:44:34;99388.69;;;7.44;42.04
63321;BME280;49449;48.800;9.534;2022-09-21T03:47:03;99389.84;;;7.41;42.32
63321;BME280;49449;48.800;9.534;2022-09-21T03:49:32;99390.66;;;7.41;42.45
63321;BME280;49449;48.800;9.534;2022-09-21T03:52:01;99390.47;;;7.43;42.24
63321;BME280;49449;48.800;9.534;2022-09-21T03:54:29;99390.88;;;7.40;42.34
63321;BME280;49449;48.800;9.534;2022-09-21T03:56:57;99388.88;;;7.42;42.31
63321;BME280;49449;48.800;9.534;2022-09-21T03:59:25;99386.66;;;7.46;42.37
63321;BME280;49449;48.800;9.534;2022-09-21T04:01:52;99391.75;;;7.47;42.24
63321;BME280;49449;48.800;9.534;2022-09-21T04:04:20;99387.47;;;7.46;42.37
63321;BME280;49449;48.800;9.534;2022-09-21T04:06:47;99396.78;;;7.49;42.23
63321;BME280;49449;48.800;9.534;2022-09-21T04:09:17;99391.75;;;7.47;42.21
63321;BME280;49449;48.800;9.534;2022-09-21T04:11:45;99402.91;;;7.49;42.28
63321;BME280;49449;48.800;9.534;2022-09-21T04:14:13;99396.00;;;7.48;42.35
63321;BME280;49449;48.800;9.534;2022-09-21T04:16:41;99396.00;;;7.48;42.16
63321;BME280;49449;48.800;9.534;2022-09-21T04:19:09;99392.38;;;7.49;41.89
63321;BME280;49449;48.800;9.534;2022-09-21T04:21:37;99389.13;;;7.47;42.18
63321;BME280;49449;48.800;9.534;2022-09-21T04:24:05;99396.34;;;7.45;42.47
63321;BME280;49449;48.800;9.534;2022-09-21T04:26:34;99401.00;;;7.43;42.58
63321;BME280;49449;48.800;9.534;2022-09-21T04:29:02;99395.38;;;7.46;42.52
63321;BME280;49449;48.800;9.534;2022-09-21T04:31:30;99400.25;;;7.49;42.55
63321;BME280;49449;48.800;9.534;2022-09-21T04:33:58;99398.44;;;7.50;42.36
63321;BME280;49449;48.800;9.534;2022-09-21T04:36:27;99403.63;;;7.43;42.47
63321;BME280;49449;48.800;9.534;2022-09-21T04:38:59;99395.03;;;7.34;42.50
63321;BME280;49449;48.800;9.534;2022-09-21T04:41:27;99404.13;;;7.32;42.46
63321;BME280;49449;48.800;9.534;2022-09-21T04:43:56;99404.13;;;7.32;42.67
63321;BME280;49449;48.800;9.534;2022-09-21T04:46:24;99409.19;;;7.33;43.00
63321;BME280;49449;48.800;9.534;2022-09-21T04:48:51;99404.91;;;7.32;43.12
63321;BME280;49449;48.800;9.534;2022-09-21T04:51:19;99410.81;;;7.34;43.13
63321;BME280;49449;48.800;9.534;2022-09-21T04:53:47;99413.25;;;7.36;42.99
63321;BME280;49449;48.800;9.534;2022-09-21T04:56:15;99413.06;;;7.37;42.74
63321;BME280;49449;48.800;9.534;2022-09-21T04:58:43;99412.44;;;7.35;42.91
63321;BME280;49449;48.800;9.534;2022-09-21T05:01:12;99413.06;;;7.37;43.14
63321;BME280;49449;48.800;9.534;2022-09-21T05:03:40;99414.88;;;7.37;43.22
63321;BME280;49449;48.800;9.534;2022-09-21T05:06:08;99419.69;;;7.33;43.00
63321;BME280;49449;48.800;9.534;2022-09-21T05:08:38;99427.84;;;7.38;43.13
63321;BME280;49449;48.800;9.534;2022-09-21T05:11:24;99421.75;;;7.38;42.83
63321;BME280;49449;48.800;9.534;2022-09-21T05:13:52;99429.66;;;7.38;42.98
63321;BME280;49449;48.800;9.534;2022-09-21T05:16:21;99427.84;;;7.38;42.63
63321;BME280;49449;48.800;9.534;2022-09-21T05:18:52;99421.75;;;7.38;43.04
63321;BME280;49449;48.800;9.534;2022-09-21T05:21:20;99427.03;;;7.38;42.88
63321;BME280;49449;48.800;9.534;2022-09-21T05:23:48;99425.41;;;7.37;43.16
63321;BME280;49449;48.800;9.534;2022-09-21T05:26:16;99433.66;;;7.34;42.92
63321;BME280;49449;48.800;9.534;2022-09-21T05:28:47;99430.41;;;7.32;42.90
63321;BME280;49449;48.800;9.534;2022-09-21T05:31:29;99439.28;;;7.31;42.64
63321;BME280;49449;48.800;9.534;2022-09-21T05:34:02;99439.91;;;7.33;42.66
63321;BME280;49449;48.800;9.534;2022-09-21T05:36:40;99444.16;;;7.34;42.74
63321;BME280;49449;48.800;9.534;2022-09-21T05:39:11;99445.81;;;7.35;42.56
63321;BME280;49449;48.800;9.534;2022-09-21T05:41:39;99447.59;;;7.34;42.35
63321;BME280;49449;48.800;9.534;2022-09-21T05:44:09;99443.38;;;7.33;42.50
63321;BME280;49449;48.800;9.534;2022-09-21T05:46:41;99452.06;;;7.34;42.40
63321;BME280;49449;48.800;9.534;2022-09-21T05:49:18;99447.78;;;7.33;42.42
63321;BME280;49449;48.800;9.534;2022-09-21T05:51:58;99453.97;;;7.25;42.20
63321;BME280;49449;48.800;9.534;2022-09-21T05:54:38;99456.41;;;7.27;42.68
63321;BME280;49449;48.800;9.534;2022-09-21T05:57:15;99454.16;;;7.23;42.76
63321;BME280;49449;48.800;9.534;2022-09-21T05:59:53;99448.34;;;7.28;42.53
63321;BME280;49449;48.800;9.534;2022-09-21T06:02:47;99457.66;;;7.31;42.68
63321;BME280;49449;48.800;9.534;2022-09-21T06:05:17;99455.31;;;7.36;42.21
63321;BME280;49449;48.800;9.534;2022-09-21T06:07:45;99450.41;;;7.33;42.31
63321;BME280;49449;48.800;9.534;2022-09-21T06:10:14;99464.00;;;7.36;42.28
63321;BME280;49449;48.800;9.534;2022-09-21T06:12:42;99465.47;;;7.39;41.91
63321;BME280;49449;48.800;9.534;2022-09-21T06:15:11;99458.97;;;7.35;41.97
63321;BME280;49449;48.800;9.534;2022-09-21T06:17:41;99465.66;;;7.37;41.84
63321;BME280;49449;48.800;9.534;2022-09-21T06:20:09;99466.84;;;7.35;42.21
63321;BME280;49449;48.800;9.534;2022-09-21T06:22:37;99469.09;;;7.38;42.54
63321;BME280;49449;48.800;9.534;2022-09-21T06:25:05;99462.28;;;7.44;41.88
63321;BME280;49449;48.800;9.534;2022-09-21T06:27:33;99462.56;;;7.34;42.04
63321;BME280;49449;48.800;9.534;2022-09-21T06:30:01;99463.66;;;7.39;42.25
63321;BME280;49449;48.800;9.534;2022-09-21T06:32:29;99459.47;;;7.45;42.08
63321;BME280;49449;48.800;9.534;2022-09-21T06:34:58;99465.16;;;7.49;41.74
63321;BME280;49449;48.800;9.534;2022-09-21T06:37:26;99460.34;;;7.52;41.64
63321;BME280;49449;48.800;9.534;2022-09-21T06:39:54;99460.34;;;7.52;42.31
63321;BME280;49449;48.800;9.534;2022-09-21T06:42:22;99460.28;;;7.60;42.04
63321;BME280;49449;48.800;9.534;2022-09-21T06:44:52;99458.91;;;7.65;42.12
63321;BME280;49449;48.800;9.534;2022-09-21T06:47:21;99462.81;;;7.69;42.11
63321;BME280;49449;48.800;9.534;2022-09-21T06:49:48;99456.78;;;7.75;41.78
63321;BME280;49449;48.800;9.534;2022-09-21T06:52:17;99452.72;;;7.72;42.10
63321;BME280;49449;48.800;9.534;2022-09-21T06:54:47;99460.03;;;7.77;42.34
63321;BME280;49449;48.800;9.534;2022-09-21T06:57:15;99458.69;;;7.81;42.20
63321;BME280;49449;48.800;9.534;2022-09-21T06:59:43;99459.56;;;7.88;42.14
63321;BME280;49449;48.800;9.534;2022-09-21T07:02:11;99463.81;;;7.89;41.98
63321;BME280;49449;48.800;9.534;2022-09-21T07:04:38;99463.06;;;7.95;42.08
63321;BME280;49449;48.800;9.534;2022-09-21T07:07:06;99455.06;;;8.04;41.94
63321;BME280;49449;48.800;9.534;2022-09-21T07:09:36;99455.06;;;8.04;41.87
63321;BME280;49449;48.800;9.534;2022-09-21T07:12:24;99463.00;;;8.10;42.07
63321;BME280;49449;48.800;9.534;2022-09-21T07:14:52;99454.91;;;8.12;41.94
63321;BME280;49449;48.800;9.534;2022-09-21T07:17:20;99453.78;;;8.21;42.03
63321;BME280;49449;48.800;9.534;2022-09-21T07:19:48;99460.69;;;8.22;42.26
63321;BME280;49449;48.800;9.534;2022-09-21T07:22:16;99454.03;;;8.26;42.45
63321;BME280;49449;48.800;9.534;2022-09-21T07:24:45;99455.34;;;8.37;41.98
63321;BME280;49449;48.800;9.534;2022-09-21T07:27:16;99456.00;;;8.46;41.44
63321;BME280;49449;48.800;9.534;2022-09-21T07:29:43;99455.00;;;8.47;41.55
63321;BME280;49449;48.800;9.534;2022-09-21T07:32:11;99454.47;;;8.58;41.49
63321;BME280;49449;48.800;9.534;2022-09-21T07:34:39;99458.19;;;8.70;41.65
63321;BME280;49449;48.800;9.534;2022-09-21T07:37:07;99457.94;;;8.87;41.87
63321;BME280;49449;48.800;9.534;2022-09-21T07:39:35;99459.88;;;9.06;41.39
63321;BME280;49449;48.800;9.534;2022-09-21T07:42:06;99464.81;;;9.23;41.32
63321;BME280;49449;48.800;9.534;2022-09-21T07:44:33;99464.69;;;9.44;41.29
63321;BME280;49449;48.800;9.534;2022-09-21T07:47:01;99461.31;;;9.64;41.16
63321;BME280;49449;48.800;9.534;2022-09-21T07:49:29;99457.94;;;9.83;41.38
63321;BME280;49449;48.800;9.534;2022-09-21T07:51:56;99456.97;;;10.04;41.97
63321;BME280;49449;48.800;9.534;2022-09-21T07:54:26;99452.72;;;10.23;41.06
63321;BME280;49449;48.800;9.534;2022-09-21T07:56:54;99451.28;;;10.41;40.13
63321;BME280;49449;48.800;9.534;2022-09-21T07:59:41;99452.09;;;10.61;39.38
63321;BME280;49449;48.800;9.534;2022-09-21T08:02:09;99452.66;;;10.77;39.67
63321;BME280;49449;48.800;9.534;2022-09-21T08:04:37;99447.59;;;10.95;39.75
63321;BME280;49449;48.800;9.534;2022-09-21T08:07:04;99453.63;;;11.16;39.79
63321;BME280;49449;48.800;9.534;2022-09-21T08:09:32;99456.78;;;11.38;39.99
63321;BME280;49449;48.800;9.534;2022-09-21T08:12:03;99450.78;;;11.56;39.59
63321;BME280;49449;48.800;9.534;2022-09-21T08:14:31;99451.72;;;11.82;39.94
63321;BME280;49449;48.800;9.534;2022-09-21T08:17:00;99451.75;;;12.07;39.04
63321;BME280;49449;48.800;9.534;2022-09-21T08:19:28;99439.78;;;12.23;38.54
63321;BME280;49449;48.800;9.534;2022-09-21T08:21:56;99440.66;;;12.42;38.28
63321;BME280;49449;48.800;9.534;2022-09-21T08:24:24;99445.34;;;12.65;38.05
63321;BME280;49449;48.800;9.534;2022-09-21T08:26:53;99443.84;;;12.76;37.81
63321;BME280;49449;48.800;9.534;2022-09-21T08:29:21;99442.59;;;12.97;37.53
63321;BME280;49449;48.800;9.534;2022-09-21T08:31:50;99443.78;;;13.19;37.44
63321;BME280;49449;48.800;9.534;2022-09-21T08:34:20;99438.19;;;13.39;37.26
63321;BME280;49449;48.800;9.534;2022-09-21T08:36:48;99443.25;;;13.59;37.12
63321;BME280;49449;48.800;9.534;2022-09-21T08:39:19;99441.38;;;13.78;37.26
63321;BME280;49449;48.800;9.534;2022-09-21T08:41:59;99449.06;;;13.98;36.99
63321;BME280;49449;48.800;9.534;2022-09-21T08:44:38;99441.56;;;14.19;36.43
63321;BME280;49449;48.800;9.534;2022-09-21T08:47:11;99434.09;;;14.39;36.40
63321;BME280;49449;48.800;9.534;2022-09-21T08:49:45;99430.97;;;14.54;35.98
63321;BME280;49449;48.800;9.534;2022-09-21T08:52:16;99429.81;;;14.74;36.47
63321;BME280;49449;48.800;9.534;2022-09-21T08:54:48;99423.56;;;14.80;35.02
63321;BME280;49449;48.800;9.534;2022-09-21T08:57:22;99423.44;;;14.87;35.28
63321;BME280;49449;48.800;9.534;2022-09-21T08:59:53;99417.84;;;15.00;34.78
63321;BME280;49449;48.800;9.534;2022-09-21T09:02:37;99419.19;;;15.14;34.84
63321;BME280;49449;48.800;9.534;2022-09-21T09:05:22;99422.63;;;14.86;33.04
63321;BME280;49449;48.800;9.534;2022-09-21T09:08:06;99415.31;;;14.93;33.02
63321;BME280;49449;48.800;9.534;2022-09-21T09:10:38;99410.97;;;15.16;33.28
63321;BME280;49449;48.800;9.534;2022-09-21T09:13:32;99412.13;;;15.32;33.10
63321;BME280;49449;48.800;9.534;2022-09-21T09:16:11;99409.03;;;15.52;32.80
63321;BME280;49449;48.800;9.534;2022-09-21T09:18:47;99400.50;;;15.67;32.35
63321;BME280;49449;48.800;9.534;2022-09-21T09:21:19;99401.31;;;15.84;30.95
63321;BME280;49449;48.800;9.534;2022-09-21T09:23:57;99401.88;;;15.86;31.90
63321;BME280;49449;48.800;9.534;2022-09-21T09:26:31;99400.28;;;16.02;31.51
63321;BME280;49449;48.800;9.534;2022-09-21T09:29:02;99390.75;;;16.23;30.82
63321;BME280;49449;48.800;9.534;2022-09-21T09:31:34;99384.69;;;15.94;30.40
63321;BME280;49449;48.800;9.534;2022-09-21T09:34:09;99388.66;;;15.91;30.66
63321;BME280;49449;48.800;9.534;2022-09-21T09:36:44;99393.03;;;16.15;33.88
63321;BME280;49449;48.800;9.534;2022-09-21T09:39:23;99401.25;;;16.13;34.14
63321;BME280;49449;48.800;9.534;2022-09-21T09:42:21;99389.47;;;16.26;29.82
63321;BME280;49449;48.800;9.534;2022-09-21T09:47:49;99392.53;;;15.38;31.43
63321;BME280;49449;48.800;9.534;2022-09-21T09:50:26;99395.03;;;15.74;30.34
63321;BME280;49449;48.800;9.534;2022-09-21T09:53:00;99389.38;;;15.41;30.18
63321;BME280;49449;48.800;9.534;2022-09-21T09:55:35;99381.78;;;15.33;31.04
63321;BME280;49449;48.800;9.534;2022-09-21T09:58:05;99379.28;;;15.72;31.16
63321;BME280;49449;48.800;9.534;2022-09-21T10:00:38;99375.88;;;15.94;31.14
63321;BME280;49449;48.800;9.534;2022-09-21T10:03:15;99379.22;;;15.84;30.83
63321;BME280;49449;48.800;9.534;2022-09-21T10:05:43;99379.03;;;15.90;30.21
63321;BME280;49449;48.800;9.534;2022-09-21T10:11:14;99368.78;;;15.99;29.73
63321;BME280;49449;48.800;9.534;2022-09-21T10:13:44;99362.31;;;16.29;29.84
63321;BME280;49449;48.800;9.534;2022-09-21T10:16:14;99366.91;;;16.34;29.47
63321;BME280;49449;48.800;9.534;2022-09-21T10:18:47;99362.88;;;16.31;29.48
63321;BME280;49449;48.800;9.534;2022-09-21T10:21:17;99369.97;;;16.64;29.39
63321;BME280;49449;48.800;9.534;2022-09-21T10:23:49;99366.75;;;16.62;29.49
63321;BME280;49449;48.800;9.534;2022-09-21T10:26:19;99357.31;;;16.77;28.66
63321;BME280;49449;48.800;9.534;2022-09-21T10:28:55;99360.50;;;16.96;28.30
63321;BME280;49449;48.800;9.534;2022-09-21T10:31:25;99355.91;;;17.13;28.24
63321;BME280;49449;48.800;9.534;2022-09-21T10:34:06;99357.03;;;17.45;28.24
63321;BME280;49449;48.800;9.534;2022-09-21T10:36:49;99352.22;;;17.19;26.71
63321;BME280;49449;48.800;9.534;2022-09-21T10:39:26;99341.81;;;17.18;27.39
63321;BME280;49449;48.800;9.534;2022-09-21T10:42:03;99348.06;;;17.29;27.83
63321;BME280;49449;48.800;9.534;2022-09-21T10:44:47;99342.53;;;17.40;27.71
63321;BME280;49449;48.800;9.534;2022-09-21T10:47:31;99337.97;;;17.36;27.51
63321;BME280;49449;48.800;9.534;2022-09-21T10:50:27;99337.13;;;17.30;27.20
63321;BME280;49449;48.800;9.534;2022-09-21T10:53:22;99337.84;;;17.53;26.80
63321;BME280;49449;48.800;9.534;2022-09-21T10:56:04;99335.78;;;17.60;27.25
63321;BME280;49449;48.800;9.534;2022-09-21T10:59:19;99347.09;;;17.13;27.16
63321;BME280;49449;48.800;9.534;2022-09-21T11:01:52;99339.66;;;16.93;27.40
63321;BME280;49449;48.800;9.534;2022-09-21T11:04:43;99337.91;;;17.03;28.10
63321;BME280;49449;48.800;9.534;2022-09-21T11:07:22;99341.28;;;17.21;27.18
63321;BME280;49449;48.800;9.534;2022-09-21T11:09:59;99339.28;;;17.06;27.52
63321;BME280;49449;48.800;9.534;2022-09-21T11:12:47;99340.31;;;17.05;27.68
63321;BME280;49449;48.800;9.534;2022-09-21T11:15:29;99342.81;;;17.12;27.06
63321;BME280;49449;48.800;9.534;2022-09-21T11:18:10;99334.94;;;17.27;27.24
63321;BME280;49449;48.800;9.534;2022-09-21T11:20:47;99333.22;;;17.43;27.06
63321;BME280;49449;48.800;9.534;2022-09-21T11:23:38;99341.03;;;17.50;26.25
63321;BME280;49449;48.800;9.534;2022-09-21T11:26:16;99339.31;;;17.38;25.49
63321;BME280;49449;48.800;9.534;2022-09-21T11:28:52;99334.00;;;17.11;26.22
63321;BME280;49449;48.800;9.534;2022-09-21T11:31:40;99342.63;;;16.74;26.45
63321;BME280;49449;48.800;9.534;2022-09-21T11:34:31;99330.63;;;16.33;26.91
63321;BME280;49449;48.800;9.534;2022-09-21T11:37:08;99331.38;;;16.50;26.82
63321;BME280;49449;48.800;9.534;2022-09-21T11:39:47;99330.66;;;16.55;26.72
63321;BME280;49449;48.800;9.534;2022-09-21T11:42:31;99327.53;;;16.63;27.01
63321;BME280;49449;48.800;9.534;2022-09-21T11:45:13;99319.28;;;16.64;27.35
63321;BME280;49449;48.800;9.534;2022-09-21T11:47:52;99318.44;;;16.37;27.36
63321;BME280;49449;48.800;9.534;2022-09-21T11:50:42;99318.16;;;16.38;27.24
63321;BME280;49449;48.800;9.534;2022-09-21T11:53:23;99312.88;;;16.21;27.18
63321;BME280;49449;48.800;9.534;2022-09-21T11:58:44;99307.19;;;16.35;27.47
63321;BME280;49449;48.800;9.534;2022-09-21T12:01:34;99309.56;;;16.53;27.69
63321;BME280;49449;48.800;9.534;2022-09-21T12:04:19;99305.41;;;16.40;26.45
63321;BME280;49449;48.800;9.534;2022-09-21T12:06:59;99310.06;;;16.50;26.73
63321;BME280;49449;48.800;9.534;2022-09-21T12:09:38;99299.50;;;16.60;27.04
63321;BME280;49449;48.800;9.534;2022-09-21T12:12:13;99297.53;;;16.73;25.90
63321;BME280;49449;48.800;9.534;2022-09-21T12:14:53;99289.97;;;16.87;26.08
63321;BME280;49449;48.800;9.534;2022-09-21T12:17:36;99285.34;;;17.04;26.50
63321;BME280;49449;48.800;9.534;2022-09-21T12:20:14;99293.09;;;17.06;25.84
63321;BME280;49449;48.800;9.534;2022-09-21T12:22:46;99292.03;;;17.07;25.82
63321;BME280;49449;48.800;9.534;2022-09-21T12:25:19;99291.56;;;16.88;25.21
63321;BME280;49449;48.800;9.534;2022-09-21T12:27:50;99288.78;;;16.55;25.75
63321;BME280;49449;48.800;9.534;2022-09-21T12:30:22;99289.50;;;16.73;26.04
63321;BME280;49449;48.800;9.534;2022-09-21T12:32:55;99287.16;;;16.76;26.79
63321;BME280;49449;48.800;9.534;2022-09-21T12:35:29;99285.56;;;16.53;26.47
63321;BME280;49449;48.800;9.534;2022-09-21T12:38:12;99283.63;;;16.26;26.35
63321;BME280;49449;48.800;9.534;2022-09-21T12:40:44;99282.84;;;16.26;26.37
63321;BME280;49449;48.800;9.534;2022-09-21T12:43:25;99279.84;;;16.22;26.27
63321;BME280;49449;48.800;9.534;2022-09-21T12:45:57;99284.59;;;16.20;26.38
63321;BME280;49449;48.800;9.534;2022-09-21T12:48:32;99280.22;;;16.09;26.35
63321;BME280;49449;48.800;9.534;2022-09-21T12:51:05;99276.09;;;15.84;25.97
63321;BME280;49449;48.800;9.534;2022-09-21T12:53:39;99277.31;;;16.11;27.08
63321;BME280;49449;48.800;9.534;2022-09-21T12:56:11;99275.88;;;16.25;26.19
63321;BME280;49449;48.800;9.534;2022-09-21T12:58:48;99278.94;;;16.34;26.13
63321;BME280;49449;48.800;9.534;2022-09-21T13:01:23;99279.72;;;15.95;25.70
63321;BME280;49449;48.800;9.534;2022-09-21T13:04:09;99277.31;;;16.33;25.71
63321;BME280;49449;48.800;9.534;2022-09-21T13:07:09;99280.09;;;16.21;26.14
63321;BME280;49449;48.800;9.534;2022-09-21T13:09:43;99282.25;;;16.24;26.50
63321;BME280;49449;48.800;9.534;2022-09-21T13:12:16;99262.06;;;15.72;26.64
63321;BME280;49449;48.800;9.534;2022-09-21T13:14:46;99266.22;;;16.02;26.02
63321;BME280;49449;48.800;9.534;2022-09-21T13:17:19;99272.59;;;16.01;26.31
63321;BME280;49449;48.800;9.534;2022-09-21T13:20:01;99264.88;;;15.82;26.23
63321;BME280;49449;48.800;9.534;2022-09-21T13:22:30;99264.91;;;16.04;26.13
63321;BME280;49449;48.800;9.534;2022-09-21T13:25:03;99276.84;;;16.19;26.78
63321;BME280;49449;48.800;9.534;2022-09-21T13:28:05;99262.97;;;16.17;26.21
63321;BME280;49449;48.800;9.534;2022-09-21T13:30:46;99262.56;;;16.25;27.51
63321;BME280;49449;48.800;9.534;2022-09-21T13:33:36;99269.63;;;16.36;27.44
63321;BME280;49449;48.800;9.534;2022-09-21T13:36:29;99264.22;;;16.53;28.04
63321;BME280;49449;48.800;9.534;2022-09-21T13:39:13;99266.94;;;16.58;26.32
63321;BME280;49449;48.800;9.534;2022-09-21T13:41:42;99268.09;;;16.40;26.00
63321;BME280;49449;48.800;9.534;2022-09-21T13:44:40;99260.31;;;16.17;25.92
63321;BME280;49449;48.800;9.534;2022-09-21T13:47:08;99258.56;;;16.05;26.11
63321;BME280;49449;48.800;9.534;2022-09-21T13:49:44;99259.25;;;16.18;26.53